Time;durP1;ratioP1;P1;durP2;ratioP2;P2;SDS_P1;SDS_P2;PMS_P1;PMS_P2;Temp;Humidity;BMP_temperature;BMP_pressure;BME280_temperature;BME280_humidity;BME280_pressure;Samples;Min_cycle;Max_cycle;Signal;HPM_P1;HPM_P2
2022/09/28 00:01:19;;;;;;;6.72;2.58;;;8.30;99.90;;;;;;5129320;27;20831;-74
2022/09/28 00:03:47;;;;;;;6.28;3.10;;;8.30;99.90;;;;;;5127679;27;20431;-75
2022/09/28 00:06:15;;;;;;;6.50;2.67;;;8.30;99.90;;;;;;5112124;27;20775;-74
2022/09/28 00:08:41;;;;;;;5.10;2.70;;;8.20;99.90;;;;;;5111515;27;20411;-74
2022/09/28 00:11:10;;;;;;;7.07;3.10;;;8.20;99.90;;;;;;5115084;27;20402;-73
2022/09/28 00:13:35;;;;;;;7.10;3.20;;;8.20;99.90;;;;;;5120804;27;20585;-74
2022/09/28 00:16:11;;;;;;;4.60;3.00;;;8.20;99.90;;;;;;5121681;27;20506;-74
2022/09/28 00:18:36;;;;;;;5.93;2.85;;;8.10;99.90;;;;;;5128595;27;20403;-73
2022/09/28 00:21:05;;;;;;;6.80;3.00;;;8.10;99.90;;;;;;5113841;27;20782;-73
2022/09/28 00:23:32;;;;;;;5.70;3.25;;;8.00;99.90;;;;;;5108932;27;20482;-73
2022/09/28 00:26:04;;;;;;;5.90;3.33;;;8.00;99.90;;;;;;5120633;27;20431;-74
2022/09/28 00:28:31;;;;;;;5.10;3.03;;;8.00;99.90;;;;;;5121625;27;20507;-73
2022/09/28 00:30:57;;;;;;;7.80;3.03;;;7.90;99.90;;;;;;5107939;28;20529;-73
2022/09/28 00:33:23;;;;;;;6.70;3.55;;;7.90;99.90;;;;;;5108471;28;20401;-74
2022/09/28 00:35:58;;;;;;;6.70;3.40;;;7.90;99.90;;;;;;5121683;27;20402;-75
2022/09/28 00:38:26;;;;;;;5.28;3.05;;;7.80;99.90;;;;;;5107414;28;20897;-75
2022/09/28 00:40:52;;;;;;;5.30;3.00;;;7.80;99.90;;;;;;5103980;28;20443;-75
2022/09/28 00:43:22;;;;;;;6.20;3.50;;;7.80;99.90;;;;;;5111101;28;20436;-75
2022/09/28 00:46:05;;;;;;;5.57;3.42;;;7.70;99.90;;;;;;5108303;28;20456;-75
2022/09/28 00:48:34;;;;;;;4.75;3.22;;;7.70;99.90;;;;;;5107559;28;20416;-74
2022/09/28 00:51:05;;;;;;;7.38;3.85;;;7.70;99.90;;;;;;5116968;27;20407;-73
2022/09/28 00:53:33;;;;;;;6.97;3.80;;;7.60;99.90;;;;;;5126009;28;20407;-73
2022/09/28 00:56:05;;;;;;;6.77;3.80;;;7.60;99.90;;;;;;5120231;27;20797;-72
2022/09/28 00:58:37;;;;;;;7.27;4.53;;;7.50;99.90;;;;;;5121059;27;20405;-75
2022/09/28 01:01:03;;;;;;;8.82;4.75;;;7.60;99.90;;;;;;5127480;27;20402;-75
2022/09/28 01:03:29;;;;;;;7.40;4.57;;;7.50;99.90;;;;;;5127516;27;20730;-74
2022/09/28 01:05:57;;;;;;;6.78;4.13;;;7.50;99.90;;;;;;5126414;27;20426;-74
2022/09/28 01:08:26;;;;;;;6.18;3.65;;;7.50;99.90;;;;;;5126074;27;20430;-73
2022/09/28 01:10:52;;;;;;;7.35;4.32;;;7.40;99.90;;;;;;5126665;27;20434;-73
2022/09/28 01:13:20;;;;;;;7.00;3.90;;;7.40;99.90;;;;;;5117487;28;20406;-73
2022/09/28 01:16:13;;;;;;;9.70;4.03;;;7.40;99.90;;;;;;5113862;27;20421;-73
2022/09/28 01:18:57;;;;;;;7.23;4.00;;;7.30;99.90;;;;;;5100384;28;20407;-75
2022/09/28 01:21:24;;;;;;;6.57;4.00;;;7.30;99.90;;;;;;5108706;27;20415;-73
2022/09/28 01:24:13;;;;;;;7.47;4.13;;;7.30;99.90;;;;;;5125188;27;20409;-74
2022/09/28 01:26:47;;;;;;;6.35;3.50;;;7.20;99.90;;;;;;5117013;27;20451;-74
2022/09/28 01:29:25;;;;;;;6.88;3.92;;;7.20;99.90;;;;;;5105722;27;20430;-73
2022/09/28 01:32:15;;;;;;;6.55;4.22;;;7.20;99.90;;;;;;5130788;27;20398;-73
2022/09/28 01:35:07;;;;;;;6.35;3.97;;;7.20;99.90;;;;;;5108614;27;20410;-75
2022/09/28 01:37:47;;;;;;;7.28;4.30;;;7.20;99.90;;;;;;5112369;27;20851;-74
2022/09/28 01:40:14;;;;;;;6.72;4.13;;;7.20;99.90;;;;;;5111220;27;20934;-74
2022/09/28 01:42:43;;;;;;;5.82;4.15;;;7.20;99.90;;;;;;5131359;27;20481;-74
2022/09/28 01:45:24;;;;;;;7.97;4.35;;;7.20;99.90;;;;;;5114977;27;20439;-74
2022/09/28 01:47:55;;;;;;;8.93;4.20;;;7.10;99.90;;;;;;5110850;27;21118;-74
2022/09/28 01:50:24;;;;;;;8.07;4.25;;;7.10;99.90;;;;;;5110634;28;20893;-74
2022/09/28 01:53:20;;;;;;;6.68;4.32;;;7.10;99.90;;;;;;5114644;27;20806;-75
2022/09/28 01:55:57;;;;;;;8.55;4.47;;;7.00;99.90;;;;;;5130651;27;20407;-74
2022/09/28 01:58:38;;;;;;;10.03;4.67;;;7.00;99.90;;;;;;5131104;27;20439;-74
2022/09/28 02:01:11;;;;;;;10.23;4.95;;;7.00;99.90;;;;;;5111897;27;20453;-74
2022/09/28 02:03:47;;;;;;;8.90;5.20;;;7.00;99.90;;;;;;5110361;27;20401;-74
2022/09/28 02:06:30;;;;;;;9.90;5.20;;;7.00;99.90;;;;;;5117021;27;20908;-74
2022/09/28 02:09:03;;;;;;;8.20;5.18;;;7.00;99.90;;;;;;5113284;27;20408;-74
2022/09/28 02:11:29;;;;;;;9.93;5.28;;;7.00;99.90;;;;;;5121568;27;20459;-74
2022/09/28 02:14:04;;;;;;;8.98;5.47;;;7.00;99.90;;;;;;5126007;27;20930;-74
2022/09/28 02:16:37;;;;;;;9.27;5.68;;;7.00;99.90;;;;;;5122124;27;20406;-74
2022/09/28 02:19:05;;;;;;;10.25;5.20;;;7.00;99.90;;;;;;5103977;27;20407;-74
2022/09/28 02:21:42;;;;;;;9.48;5.70;;;6.90;99.90;;;;;;5129887;27;20406;-74
2022/09/28 02:24:26;;;;;;;10.02;5.60;;;6.90;99.90;;;;;;5122268;27;20412;-74
2022/09/28 02:26:55;;;;;;;10.65;5.85;;;6.90;99.90;;;;;;5125950;27;20570;-74
2022/09/28 02:29:22;;;;;;;11.82;6.25;;;6.90;99.90;;;;;;5128941;27;20395;-74
2022/09/28 02:31:50;;;;;;;10.10;6.13;;;6.90;99.90;;;;;;5126245;27;20439;-74
2022/09/28 02:34:16;;;;;;;8.05;5.60;;;6.80;99.90;;;;;;5091359;28;20404;-74
2022/09/28 02:36:43;;;;;;;9.05;5.15;;;6.80;99.90;;;;;;5109805;27;20992;-75
2022/09/28 02:39:17;;;;;;;11.80;6.35;;;6.80;99.90;;;;;;5109601;28;20411;-74
2022/09/28 02:42:10;;;;;;;8.80;5.60;;;6.80;99.90;;;;;;5110145;27;20404;-74
2022/09/28 02:44:39;;;;;;;11.05;6.88;;;6.80;99.90;;;;;;5109930;27;20424;-74
2022/09/28 02:47:28;;;;;;;11.20;5.88;;;6.80;99.90;;;;;;5109822;28;21116;-74
2022/09/28 02:50:14;;;;;;;14.88;6.40;;;6.80;99.90;;;;;;5108710;28;20423;-74
2022/09/28 02:52:56;;;;;;;23.60;6.22;;;6.80;99.90;;;;;;5125262;27;20403;-74
2022/09/28 02:55:59;;;;;;;21.73;6.22;;;6.80;99.90;;;;;;5128588;27;20418;-74
2022/09/28 02:58:33;;;;;;;27.98;5.85;;;6.80;99.90;;;;;;5109697;27;20416;-74
2022/09/28 03:01:27;;;;;;;39.28;6.32;;;6.80;99.90;;;;;;5110425;27;20437;-75
2022/09/28 03:04:10;;;;;;;37.63;6.10;;;6.80;99.90;;;;;;5108480;27;20412;-74
2022/09/28 03:06:47;;;;;;;25.42;5.32;;;6.80;99.90;;;;;;5109864;27;20529;-76
2022/09/28 03:09:18;;;;;;;35.80;6.10;;;6.90;99.90;;;;;;5109256;27;20411;-74
2022/09/28 03:11:52;;;;;;;32.25;5.47;;;6.80;99.90;;;;;;5109932;27;20428;-75
2022/09/28 03:14:19;;;;;;;38.80;6.18;;;6.80;99.90;;;;;;5108817;28;20758;-74
2022/09/28 03:16:45;;;;;;;49.45;7.78;;;6.80;99.90;;;;;;5110661;27;20400;-74
2022/09/28 03:19:11;;;;;;;32.78;6.20;;;6.90;99.90;;;;;;5109510;27;20411;-75
2022/09/28 03:21:37;;;;;;;33.45;6.13;;;6.90;99.90;;;;;;5109260;27;20428;-75
2022/09/28 03:24:04;;;;;;;27.23;5.70;;;6.90;99.90;;;;;;5107970;28;20432;-75
2022/09/28 03:26:31;;;;;;;36.88;6.55;;;6.90;99.90;;;;;;5109085;27;20857;-75
2022/09/28 03:28:56;;;;;;;53.90;7.68;;;6.90;99.90;;;;;;5107776;28;20423;-74
2022/09/28 03:31:22;;;;;;;64.22;8.55;;;6.90;99.90;;;;;;5107775;28;20404;-75
2022/09/28 03:33:50;;;;;;;87.22;10.23;;;6.90;99.90;;;;;;5108414;28;20397;-75
2022/09/28 03:36:15;;;;;;;62.75;9.05;;;7.00;99.90;;;;;;5109282;28;20432;-74
2022/09/28 03:38:41;;;;;;;63.80;9.25;;;7.00;99.90;;;;;;5128356;27;20430;-75
2022/09/28 03:41:08;;;;;;;65.73;9.60;;;7.00;99.90;;;;;;5128343;27;20842;-75
2022/09/28 03:43:34;;;;;;;60.88;9.45;;;7.10;99.90;;;;;;5127009;27;20414;-75
2022/09/28 03:46:00;;;;;;;57.17;9.23;;;7.00;99.90;;;;;;5125877;27;20911;-75
2022/09/28 03:48:29;;;;;;;39.20;8.00;;;7.00;99.90;;;;;;5127808;27;20482;-74
2022/09/28 03:50:56;;;;;;;37.83;8.63;;;7.00;99.90;;;;;;5127176;27;20803;-75
2022/09/28 03:53:22;;;;;;;31.03;7.90;;;7.10;99.90;;;;;;5129078;27;20386;-75
2022/09/28 03:55:49;;;;;;;32.72;8.55;;;7.10;99.90;;;;;;5127867;27;20395;-75
2022/09/28 03:58:15;;;;;;;29.10;8.77;;;7.10;99.90;;;;;;5120750;27;20399;-75
2022/09/28 04:00:41;;;;;;;39.05;8.82;;;7.10;99.90;;;;;;5107639;27;20740;-75
2022/09/28 04:03:07;;;;;;;35.70;8.70;;;7.20;99.90;;;;;;5108508;28;20408;-75
2022/09/28 04:05:33;;;;;;;43.75;9.80;;;7.20;99.90;;;;;;5108026;27;20528;-75
2022/09/28 04:07:59;;;;;;;28.73;8.60;;;7.20;99.90;;;;;;5127891;27;20834;-75
2022/09/28 04:10:25;;;;;;;53.58;10.32;;;7.20;99.90;;;;;;5127994;27;20403;-75
2022/09/28 04:12:57;;;;;;;45.42;10.25;;;7.20;99.90;;;;;;5127972;27;20583;-75
2022/09/28 04:15:24;;;;;;;56.92;11.38;;;7.20;99.90;;;;;;5107355;27;20402;-75
2022/09/28 04:17:50;;;;;;;54.63;10.70;;;7.20;99.90;;;;;;5117194;27;20398;-74
2022/09/28 04:20:16;;;;;;;35.05;9.88;;;7.20;99.90;;;;;;5127870;27;20407;-75
2022/09/28 04:22:43;;;;;;;48.80;10.75;;;7.20;99.90;;;;;;5128591;27;20391;-76
2022/09/28 04:25:09;;;;;;;33.63;9.07;;;7.20;99.90;;;;;;5111557;27;20510;-75
2022/09/28 04:30:18;;;;;;;43.75;10.27;;;7.20;99.90;;;;;;5106986;28;20410;-75
2022/09/28 04:32:47;;;;;;;33.03;9.48;;;7.10;99.90;;;;;;5089781;28;20773;-75
2022/09/28 04:35:13;;;;;;;26.50;8.20;;;7.10;99.90;;;;;;5108419;28;20396;-75
2022/09/28 04:37:39;;;;;;;35.10;9.15;;;7.10;99.90;;;;;;5106561;28;20789;-75
2022/09/28 04:40:05;;;;;;;23.55;9.00;;;7.10;99.90;;;;;;5108422;28;20941;-75
2022/09/28 04:42:31;;;;;;;22.95;7.53;;;7.00;99.90;;;;;;5107240;28;20499;-75
2022/09/28 04:44:57;;;;;;;28.35;8.23;;;7.00;99.90;;;;;;5107611;28;20514;-74
2022/09/28 04:47:24;;;;;;;23.15;7.65;;;7.00;99.90;;;;;;5108463;28;20449;-75
2022/09/28 04:49:49;;;;;;;20.20;7.03;;;7.00;99.90;;;;;;5108270;28;20396;-75
2022/09/28 04:52:15;;;;;;;25.10;6.80;;;6.90;99.90;;;;;;5106901;28;20410;-75
2022/09/28 04:54:41;;;;;;;26.10;6.35;;;6.90;99.90;;;;;;5107496;28;20412;-75
2022/09/28 04:57:07;;;;;;;47.03;8.07;;;6.80;99.90;;;;;;5108239;28;21886;-75
2022/09/28 04:59:32;;;;;;;27.23;6.50;;;6.80;99.90;;;;;;5111462;28;20400;-75
2022/09/28 05:01:58;;;;;;;32.38;6.78;;;6.70;99.90;;;;;;5124205;27;20409;-75
2022/09/28 05:04:24;;;;;;;21.73;6.05;;;6.70;99.90;;;;;;5131393;27;20470;-74
2022/09/28 05:06:49;;;;;;;33.03;5.70;;;6.70;99.90;;;;;;5130192;27;20402;-75
2022/09/28 05:09:15;;;;;;;34.10;6.60;;;6.70;99.90;;;;;;5130678;27;20470;-75
2022/09/28 05:11:41;;;;;;;25.43;6.20;;;6.70;99.90;;;;;;5130474;27;20435;-75
2022/09/28 05:14:06;;;;;;;21.50;4.90;;;6.60;99.90;;;;;;5131313;27;20737;-75
2022/09/28 05:16:32;;;;;;;26.35;5.32;;;6.60;99.90;;;;;;5132019;27;20809;-74
2022/09/28 05:18:59;;;;;;;29.30;4.90;;;6.50;99.90;;;;;;5132772;27;20494;-75
2022/09/28 05:21:25;;;;;;;26.93;5.50;;;6.50;99.90;;;;;;5134261;27;20977;-75
2022/09/28 05:23:54;;;;;;;38.72;5.47;;;6.40;99.90;;;;;;5126999;27;20396;-74
2022/09/28 05:26:20;;;;;;;36.05;4.90;;;6.40;99.90;;;;;;5123774;27;20419;-75
2022/09/28 05:28:46;;;;;;;27.02;4.80;;;6.30;99.90;;;;;;5131842;27;20398;-75
2022/09/28 05:31:12;;;;;;;33.15;5.10;;;6.30;99.90;;;;;;5131568;27;20402;-75
2022/09/28 05:33:37;;;;;;;27.27;4.63;;;6.20;99.90;;;;;;5130756;27;20438;-75
2022/09/28 05:36:03;;;;;;;28.65;5.15;;;6.20;99.90;;;;;;5130437;27;20752;-75
2022/09/28 05:38:29;;;;;;;26.75;5.10;;;6.20;99.90;;;;;;5133264;27;20406;-76
2022/09/28 05:40:55;;;;;;;30.35;5.80;;;6.20;99.90;;;;;;5133476;27;20937;-75
2022/09/28 05:43:21;;;;;;;33.57;5.73;;;6.10;99.90;;;;;;5130155;27;20494;-75
2022/09/28 05:45:47;;;;;;;34.20;5.75;;;6.10;99.90;;;;;;5135354;27;20430;-75
2022/09/28 05:48:13;;;;;;;33.42;5.30;;;6.10;99.90;;;;;;5134237;27;20457;-75
2022/09/28 05:50:38;;;;;;;30.70;5.25;;;6.10;99.90;;;;;;5120412;28;20404;-75
2022/09/28 05:53:08;;;;;;;42.33;6.10;;;6.10;99.90;;;;;;5118751;27;20902;-75
2022/09/28 05:55:35;;;;;;;41.63;6.22;;;6.10;99.90;;;;;;5095087;28;20409;-74
2022/09/28 05:58:03;;;;;;;42.38;6.10;;;6.10;99.90;;;;;;5125307;27;20960;-75
2022/09/28 06:00:30;;;;;;;68.60;7.32;;;6.10;99.90;;;;;;5124341;27;20406;-75
2022/09/28 06:03:05;;;;;;;76.95;7.10;;;6.10;99.90;;;;;;5124357;27;20465;-74
2022/09/28 06:05:32;;;;;;;80.63;8.43;;;6.10;99.90;;;;;;5106591;27;20455;-75
2022/09/28 06:07:58;;;;;;;71.82;7.47;;;6.10;99.90;;;;;;5123278;27;20396;-75
2022/09/28 06:10:26;;;;;;;80.28;8.70;;;6.20;99.90;;;;;;5124744;27;20398;-75
2022/09/28 06:12:55;;;;;;;66.88;7.43;;;6.20;99.90;;;;;;5122539;27;20436;-75
2022/09/28 06:15:27;;;;;;;61.35;7.53;;;6.20;99.90;;;;;;5125859;27;20395;-75
2022/09/28 06:18:08;;;;;;;44.13;7.72;;;6.20;99.90;;;;;;5130557;27;20495;-75
2022/09/28 06:20:36;;;;;;;33.90;6.38;;;6.30;99.90;;;;;;5128852;27;20401;-75
2022/09/28 06:23:02;;;;;;;51.80;7.40;;;6.30;99.90;;;;;;5129293;27;20892;-74
2022/09/28 06:25:28;;;;;;;36.75;6.28;;;6.30;99.90;;;;;;5109549;27;20471;-75
2022/09/28 06:28:14;;;;;;;44.72;6.50;;;6.20;99.90;;;;;;5110286;28;20489;-75
2022/09/28 06:30:41;;;;;;;55.50;8.52;;;6.20;99.90;;;;;;5106016;27;20969;-74
2022/09/28 06:33:09;;;;;;;39.65;6.43;;;6.20;99.90;;;;;;5130246;27;20406;-73
2022/09/28 06:35:35;;;;;;;43.75;6.57;;;6.20;99.90;;;;;;5129443;27;20903;-74
2022/09/28 06:38:01;;;;;;;27.38;5.35;;;6.20;99.90;;;;;;5129479;27;20399;-73
2022/09/28 06:40:27;;;;;;;36.42;6.10;;;6.20;99.90;;;;;;5130569;27;20395;-73
2022/09/28 06:42:58;;;;;;;44.35;6.63;;;6.20;99.90;;;;;;5129270;27;20463;-73
2022/09/28 06:45:25;;;;;;;26.33;5.80;;;6.30;99.90;;;;;;5128063;27;20483;-74
2022/09/28 06:47:59;;;;;;;36.22;6.07;;;6.30;99.90;;;;;;5128941;27;20390;-74
2022/09/28 06:50:31;;;;;;;36.63;6.47;;;6.40;99.90;;;;;;5129456;27;20403;-73
2022/09/28 06:52:57;;;;;;;24.35;5.80;;;6.40;99.90;;;;;;5127068;27;20983;-73
2022/09/28 06:55:24;;;;;;;17.30;5.43;;;6.40;99.90;;;;;;5129546;27;20391;-74
2022/09/28 06:57:58;;;;;;;33.87;6.80;;;6.50;99.90;;;;;;5114649;27;20397;-73
2022/09/28 07:00:24;;;;;;;33.13;5.87;;;6.50;99.90;;;;;;5128609;27;20394;-74
2022/09/28 07:02:50;;;;;;;26.65;5.43;;;6.50;99.90;;;;;;5127289;27;20892;-74
2022/09/28 07:05:18;;;;;;;38.87;6.13;;;6.60;99.90;;;;;;5127755;27;20475;-74
2022/09/28 07:07:43;;;;;;;35.20;5.97;;;6.60;99.90;;;;;;5126965;27;20399;-74
2022/09/28 07:10:12;;;;;;;34.22;6.07;;;6.60;99.90;;;;;;5128348;27;20814;-74
2022/09/28 07:12:38;;;;;;;37.15;6.32;;;6.60;99.90;;;;;;5127494;27;20478;-74
2022/09/28 07:15:06;;;;;;;34.58;6.10;;;6.60;99.90;;;;;;5127982;27;20691;-74
2022/09/28 07:17:33;;;;;;;38.88;6.45;;;6.70;99.90;;;;;;5127461;27;20382;-73
2022/09/28 07:19:59;;;;;;;51.42;8.27;;;6.70;99.90;;;;;;5126498;27;20895;-74
2022/09/28 07:22:25;;;;;;;38.15;6.50;;;6.80;99.90;;;;;;5127685;27;20399;-75
2022/09/28 07:24:51;;;;;;;48.70;6.55;;;6.80;99.90;;;;;;5112313;27;20424;-74
2022/09/28 07:27:16;;;;;;;37.83;6.70;;;6.90;99.90;;;;;;5100646;27;20438;-74
2022/09/28 07:29:42;;;;;;;60.40;7.87;;;7.00;99.90;;;;;;5128416;27;20401;-74
2022/09/28 07:32:08;;;;;;;46.80;7.30;;;7.00;99.90;;;;;;5128855;27;20459;-74
2022/09/28 07:34:42;;;;;;;45.80;7.27;;;7.10;99.90;;;;;;5128299;27;20409;-74
2022/09/28 07:37:10;;;;;;;47.10;7.00;;;7.20;99.90;;;;;;5104650;27;20398;-75
2022/09/28 07:41:10;;;;;;;45.67;6.70;;;7.20;99.90;;;;;;5127457;27;20884;-74
2022/09/28 07:42:28;;;;;;;66.32;7.32;;;7.30;99.90;;;;;;5108832;28;20816;-74
2022/09/28 07:44:55;;;;;;;38.53;6.05;;;7.40;99.90;;;;;;5108814;27;20442;-74
2022/09/28 07:47:25;;;;;;;36.47;6.90;;;7.50;99.90;;;;;;5108859;27;20400;-74
2022/09/28 07:49:55;;;;;;;46.80;7.45;;;7.50;99.90;;;;;;5108804;28;20395;-74
2022/09/28 07:52:25;;;;;;;57.85;7.00;;;7.60;99.90;;;;;;5108109;28;20782;-74
2022/09/28 07:54:57;;;;;;;33.60;6.50;;;7.60;99.90;;;;;;5101441;27;20773;-74
2022/09/28 07:57:23;;;;;;;28.80;6.10;;;7.70;99.90;;;;;;5114780;27;20407;-74
2022/09/28 07:59:49;;;;;;;54.92;8.18;;;7.80;99.90;;;;;;5128763;27;20445;-74
2022/09/28 08:02:21;;;;;;;32.80;6.20;;;7.90;99.90;;;;;;5128017;27;20516;-74
2022/09/28 08:04:48;;;;;;;40.45;7.32;;;8.00;99.90;;;;;;5127766;27;20418;-74
2022/09/28 08:07:15;;;;;;;47.65;7.45;;;8.10;99.90;;;;;;5114997;27;20400;-74
2022/09/28 08:09:42;;;;;;;46.55;6.32;;;8.20;99.90;;;;;;5127412;27;20466;-74
2022/09/28 08:12:09;;;;;;;28.77;6.20;;;8.30;99.90;;;;;;5127512;27;20424;-74
2022/09/28 08:14:34;;;;;;;34.33;6.43;;;8.40;99.90;;;;;;5128513;27;20896;-74
2022/09/28 08:17:01;;;;;;;54.33;7.80;;;8.50;99.90;;;;;;5127849;27;20392;-74
2022/09/28 08:21:43;;;;;;;35.58;7.20;;;8.50;99.90;;;;;;5126521;27;20831;-74
2022/09/28 08:22:13;;;;;;;35.70;6.30;;;8.60;99.90;;;;;;5128402;27;20414;-74
2022/09/28 08:24:38;;;;;;;32.97;6.30;;;8.70;99.90;;;;;;5114705;27;20416;-74
2022/09/28 08:27:04;;;;;;;26.52;6.32;;;8.80;99.90;;;;;;5121092;27;20941;-74
2022/09/28 08:29:30;;;;;;;37.83;7.03;;;8.80;99.90;;;;;;5119667;27;20413;-74
2022/09/28 08:31:58;;;;;;;23.85;6.10;;;8.90;99.90;;;;;;5127293;27;20403;-74
2022/09/28 08:34:26;;;;;;;29.58;6.40;;;9.00;99.90;;;;;;5115461;27;20901;-74
2022/09/28 08:36:52;;;;;;;25.67;6.20;;;9.00;99.90;;;;;;5106440;28;20643;-75
2022/09/28 08:39:17;;;;;;;23.45;5.93;;;9.10;99.90;;;;;;5105649;28;20419;-74
2022/09/28 08:42:01;;;;;;;21.07;5.97;;;9.30;99.90;;;;;;5107960;28;20404;-73
2022/09/28 08:44:36;;;;;;;23.85;5.78;;;9.30;99.90;;;;;;5110219;27;20742;-74
2022/09/28 08:48:42;;;;;;;18.77;5.70;;;9.50;99.90;;;;;;5124595;27;20413;-74
2022/09/28 08:49:55;;;;;;;16.77;5.78;;;9.70;99.90;;;;;;5120953;27;20889;-74
2022/09/28 08:52:29;;;;;;;11.73;5.40;;;9.90;99.90;;;;;;5128311;27;20824;-74
2022/09/28 08:55:18;;;;;;;10.18;5.07;;;10.10;99.90;;;;;;5125925;27;20421;-74
2022/09/28 08:58:09;;;;;;;6.88;4.43;;;10.40;99.90;;;;;;5094647;28;20422;-74
2022/09/28 09:00:41;;;;;;;10.13;4.50;;;10.50;99.90;;;;;;5106909;28;20417;-74
2022/09/28 09:03:11;;;;;;;6.47;4.40;;;10.70;99.90;;;;;;5106776;28;20408;-74
2022/09/28 09:06:04;;;;;;;15.83;4.60;;;10.70;99.90;;;;;;5108124;28;20443;-74
2022/09/28 09:08:41;;;;;;;10.63;4.70;;;10.70;99.90;;;;;;5104456;28;20956;-74
2022/09/28 09:11:22;;;;;;;11.32;4.85;;;10.70;99.90;;;;;;5089369;28;20458;-75
2022/09/28 09:13:57;;;;;;;6.22;4.60;;;10.90;99.90;;;;;;5114886;28;20846;-74
2022/09/28 09:16:45;;;;;;;7.40;4.70;;;11.30;99.90;;;;;;5114183;27;20413;-74
2022/09/28 09:19:21;;;;;;;5.95;4.10;;;11.40;99.90;;;;;;5126786;27;20395;-74
2022/09/28 09:22:08;;;;;;;5.47;3.92;;;11.40;99.90;;;;;;5127582;27;20414;-74
2022/09/28 09:24:58;;;;;;;6.70;4.63;;;11.40;99.90;;;;;;5101947;28;20423;-75
2022/09/28 09:28:06;;;;;;;6.63;4.55;;;11.60;99.90;;;;;;5125714;27;20482;-74
2022/09/28 09:31:07;;;;;;;4.97;3.90;;;12.20;99.90;;;;;;5113111;27;20407;-74
2022/09/28 09:33:45;;;;;;;5.00;4.07;;;12.70;99.90;;;;;;5126492;27;20489;-74
2022/09/28 09:36:31;;;;;;;4.38;3.58;;;12.80;99.90;;;;;;5126001;28;20411;-75
2022/09/28 09:39:17;;;;;;;6.10;4.50;;;12.80;99.90;;;;;;5126681;27;20410;-74
2022/09/28 09:42:00;;;;;;;5.20;3.90;;;12.70;99.90;;;;;;5083536;28;20411;-74
2022/09/28 09:44:42;;;;;;;5.07;4.00;;;12.80;99.90;;;;;;5128586;27;21375;-74
2022/09/28 09:47:26;;;;;;;5.22;4.03;;;12.90;99.90;;;;;;5125131;27;20412;-74
2022/09/28 09:49:55;;;;;;;5.68;4.00;;;13.20;99.90;;;;;;5125311;27;20403;-74
2022/09/28 09:52:32;;;;;;;5.18;3.67;;;13.60;99.90;;;;;;5131572;27;20414;-74
2022/09/28 09:55:09;;;;;;;5.30;3.55;;;13.90;99.90;;;;;;5130569;27;20517;-74
2022/09/28 09:57:46;;;;;;;4.32;3.40;;;14.00;99.90;;;;;;5131057;27;20410;-74
2022/09/28 10:00:13;;;;;;;4.78;3.35;;;14.10;99.90;;;;;;5131035;27;20494;-74
2022/09/28 10:02:40;;;;;;;4.50;3.42;;;14.00;99.90;;;;;;5115905;27;20392;-74
2022/09/28 10:05:17;;;;;;;4.35;3.47;;;13.90;99.90;;;;;;5109277;27;20435;-74
2022/09/28 10:07:43;;;;;;;4.47;3.00;;;14.00;99.90;;;;;;5110971;27;20408;-74
2022/09/28 10:10:35;;;;;;;4.60;3.00;;;14.20;99.90;;;;;;5110842;27;20426;-74
2022/09/28 10:13:02;;;;;;;4.68;3.08;;;14.40;99.90;;;;;;5109981;27;20405;-74
2022/09/28 10:15:30;;;;;;;3.93;2.70;;;14.90;99.90;;;;;;5110425;27;20405;-74
2022/09/28 10:17:59;;;;;;;4.78;2.85;;;15.50;99.90;;;;;;5110891;27;20393;-74
2022/09/28 10:20:28;;;;;;;3.37;2.77;;;16.00;99.90;;;;;;5110505;28;20399;-74
2022/09/28 10:22:57;;;;;;;3.20;2.42;;;16.40;99.90;;;;;;5110196;27;20412;-74
2022/09/28 10:25:23;;;;;;;4.40;2.58;;;16.80;99.90;;;;;;5110206;27;20439;-74
2022/09/28 10:27:51;;;;;;;4.00;2.25;;;16.80;99.90;;;;;;5109744;27;20410;-74
2022/09/28 10:30:22;;;;;;;3.40;2.70;;;17.00;99.90;;;;;;5108858;27;20468;-74
2022/09/28 10:32:51;;;;;;;3.38;2.30;;;18.00;99.90;;;;;;5110489;27;20496;-74
2022/09/28 10:35:21;;;;;;;3.70;2.50;;;18.20;99.90;;;;;;5109352;28;20452;-74
2022/09/28 10:38:02;;;;;;;2.60;2.08;;;17.80;99.90;;;;;;5109620;27;20443;-74
2022/09/28 10:40:38;;;;;;;2.90;2.28;;;17.50;99.90;;;;;;5109561;27;20412;-74
2022/09/28 10:43:34;;;;;;;3.85;2.25;;;18.00;99.90;;;;;;5110354;27;20412;-75
2022/09/28 10:46:09;;;;;;;3.10;1.90;;;19.00;99.90;;;;;;5105532;27;20794;-73
2022/09/28 10:48:49;;;;;;;3.00;1.90;;;19.10;99.90;;;;;;5114506;27;20407;-73
2022/09/28 10:51:16;;;;;;;2.75;1.92;;;19.00;99.90;;;;;;5129938;27;20402;-72
2022/09/28 10:53:56;;;;;;;3.28;1.88;;;19.40;99.90;;;;;;5108920;27;20412;-72
2022/09/28 10:56:25;;;;;;;2.97;1.80;;;20.10;99.90;;;;;;5092026;28;20400;-72
2022/09/28 10:58:51;;;;;;;3.00;1.83;;;20.50;99.90;;;;;;5108506;27;20432;-72
2022/09/28 11:01:25;;;;;;;3.13;1.80;;;20.50;99.90;;;;;;5110257;27;20477;-72
2022/09/28 11:03:55;;;;;;;5.22;2.03;;;20.00;99.90;;;;;;5109651;27;20411;-73
2022/09/28 11:06:30;;;;;;;3.08;1.95;;;19.80;99.90;;;;;;5109489;27;20427;-72
2022/09/28 11:08:59;;;;;;;2.25;1.40;;;20.30;99.90;;;;;;5109559;28;20416;-72
2022/09/28 11:11:26;;;;;;;2.40;1.37;;;21.00;99.90;;;;;;5108950;27;20961;-72
2022/09/28 11:14:02;;;;;;;3.08;1.80;;;20.80;99.60;;;;;;5109913;27;20491;-72
2022/09/28 11:16:33;;;;;;;2.90;1.77;;;20.50;99.90;;;;;;5109348;27;20419;-72
2022/09/28 11:19:27;;;;;;;2.95;1.60;;;21.00;99.90;;;;;;5110237;27;20499;-73
2022/09/28 11:21:52;;;;;;;2.10;1.40;;;21.70;99.70;;;;;;5108097;27;20420;-74
2022/09/28 11:24:21;;;;;;;3.27;1.80;;;21.70;97.30;;;;;;5110882;27;20431;-73
2022/09/28 11:26:55;;;;;;;2.08;1.40;;;21.60;98.70;;;;;;5109404;27;20450;-73
2022/09/28 11:29:25;;;;;;;2.53;1.20;;;21.90;99.10;;;;;;5109836;27;20404;-74
2022/09/28 11:31:51;;;;;;;1.77;1.08;;;22.40;97.90;;;;;;5107911;27;20397;-73
2022/09/28 11:34:26;;;;;;;1.58;1.08;;;22.50;96.60;;;;;;5109677;27;20403;-73
2022/09/28 11:37:13;;;;;;;2.45;1.30;;;22.70;96.00;;;;;;5110030;27;20412;-74
2022/09/28 11:39:43;;;;;;;2.17;0.90;;;22.80;94.30;;;;;;5108350;27;20412;-72
2022/09/28 11:42:27;;;;;;;2.33;0.82;;;22.80;94.50;;;;;;5109999;27;20451;-73
2022/09/28 11:45:24;;;;;;;1.55;0.60;;;22.80;95.30;;;;;;5108737;27;20428;-73
2022/09/28 11:47:58;;;;;;;2.08;0.90;;;23.30;93.80;;;;;;5109312;27;20408;-73
2022/09/28 11:51:13;;;;;;;1.63;1.02;;;23.90;91.80;;;;;;5108497;28;20440;-73
2022/09/28 11:53:49;;;;;;;1.98;0.63;;;24.20;91.90;;;;;;5084283;28;20418;-73
2022/09/28 11:56:30;;;;;;;1.52;0.80;;;23.70;91.20;;;;;;5085977;28;20414;-73
2022/09/28 11:59:10;;;;;;;3.97;0.77;;;22.50;91.00;;;;;;5101680;27;20403;-73
2022/09/28 12:01:42;;;;;;;1.15;0.60;;;21.40;92.50;;;;;;5104520;28;20482;-73
2022/09/28 12:04:25;;;;;;;1.65;0.70;;;21.20;93.00;;;;;;5121290;27;20523;-73
2022/09/28 12:07:17;;;;;;;1.75;0.65;;;22.00;93.80;;;;;;5132362;27;20498;-72
2022/09/28 12:09:53;;;;;;;2.00;0.60;;;23.00;91.90;;;;;;5104074;27;20414;-73
2022/09/28 12:12:42;;;;;;;1.33;0.60;;;23.70;90.30;;;;;;5135898;27;20437;-74
2022/09/28 12:15:23;;;;;;;1.45;0.60;;;24.30;90.60;;;;;;5115086;27;20409;-74
2022/09/28 12:18:02;;;;;;;1.25;0.40;;;24.20;87.90;;;;;;5133042;27;20414;-74
2022/09/28 12:20:40;;;;;;;2.00;0.47;;;23.70;88.60;;;;;;5128824;27;20459;-74
2022/09/28 12:23:15;;;;;;;1.70;0.60;;;22.80;89.20;;;;;;5104838;27;20402;-73
2022/09/28 12:25:50;;;;;;;1.05;0.40;;;21.90;89.30;;;;;;5125605;27;21445;-73
2022/09/28 12:28:34;;;;;;;1.17;0.47;;;20.90;90.40;;;;;;5128686;27;20409;-74
2022/09/28 12:31:10;;;;;;;1.20;0.40;;;20.20;91.20;;;;;;5128129;27;20430;-73
2022/09/28 12:33:37;;;;;;;2.78;0.40;;;19.30;91.70;;;;;;5127647;27;20391;-74
2022/09/28 12:36:25;;;;;;;0.88;0.20;;;18.80;92.70;;;;;;5126921;27;20750;-73
2022/09/28 12:38:56;;;;;;;2.30;0.30;;;18.20;93.40;;;;;;5126059;27;20774;-73
2022/09/28 12:41:53;;;;;;;1.27;0.30;;;17.70;94.00;;;;;;5128129;27;20403;-74
2022/09/28 12:44:45;;;;;;;0.90;0.25;;;17.20;94.80;;;;;;5112237;27;20474;-74
2022/09/28 12:47:14;;;;;;;1.00;0.20;;;16.90;95.50;;;;;;5129243;27;20522;-73
2022/09/28 12:50:07;;;;;;;0.80;0.20;;;16.60;95.80;;;;;;5116202;28;20412;-73
2022/09/28 12:52:53;;;;;;;1.23;0.25;;;16.40;96.60;;;;;;5104846;28;20419;-74
2022/09/28 12:56:10;;;;;;;0.80;0.17;;;16.30;96.90;;;;;;5113106;28;20401;-73
2022/09/28 12:58:58;;;;;;;1.17;0.30;;;16.20;97.00;;;;;;5072851;28;20418;-73
2022/09/28 13:01:37;;;;;;;1.17;0.20;;;16.00;97.50;;;;;;5121861;27;20403;-73
2022/09/28 13:04:30;;;;;;;2.70;0.10;;;16.10;98.00;;;;;;5116014;28;20670;-73
2022/09/28 13:07:13;;;;;;;2.20;0.10;;;16.50;98.10;;;;;;5096417;28;20424;-73
2022/09/28 13:10:01;;;;;;;1.30;0.50;;;17.30;97.50;;;;;;5108424;28;20528;-72
2022/09/28 13:12:39;;;;;;;0.40;0.10;;;18.20;97.10;;;;;;5107005;28;20484;-73
2022/09/28 13:15:35;;;;;;;1.50;0.03;;;18.90;95.50;;;;;;5108010;28;20405;-73
2022/09/28 13:18:07;;;;;;;0.70;0.10;;;19.30;94.40;;;;;;5106701;28;20977;-74
2022/09/28 13:20:46;;;;;;;2.10;0.10;;;19.00;93.20;;;;;;5111539;28;20400;-73